sensor_id;sensor_type;location;lat;lon;timestamp;P1;P2;P0
68713;PMS7003;55690;51.566;19.198;2022-10-19T00:02:16;15;11;6
68713;PMS7003;55690;51.566;19.198;2022-10-19T00:06:27;14;11;7
68713;PMS7003;55690;51.566;19.198;2022-10-19T00:10:34;8;8;5
68713;PMS7003;55690;51.566;19.198;2022-10-19T00:14:40;13;11;8
68713;PMS7003;55690;51.566;19.198;2022-10-19T00:18:42;15;14;9
68713;PMS7003;55690;51.566;19.198;2022-10-19T00:22:48;15;11;8
68713;PMS7003;55690;51.566;19.198;2022-10-19T00:26:53;12;9;7
68713;PMS7003;55690;51.566;19.198;2022-10-19T00:31:03;18;5;4
68713;PMS7003;55690;51.566;19.198;2022-10-19T00:35:09;9;8;5
68713;PMS7003;55690;51.566;19.198;2022-10-19T00:39:13;9;7;6
68713;PMS7003;55690;51.566;19.198;2022-10-19T00:43:20;13;11;7
68713;PMS7003;55690;51.566;19.198;2022-10-19T00:47:24;10;8;6
68713;PMS7003;55690;51.566;19.198;2022-10-19T00:51:31;9;9;4
68713;PMS7003;55690;51.566;19.198;2022-10-19T00:55:37;16;11;9
68713;PMS7003;55690;51.566;19.198;2022-10-19T00:59:43;9;9;5
68713;PMS7003;55690;51.566;19.198;2022-10-19T01:03:49;14;8;4
68713;PMS7003;55690;51.566;19.198;2022-10-19T01:07:55;11;11;7
68713;PMS7003;55690;51.566;19.198;2022-10-19T01:16:20;7;5;4
68713;PMS7003;55690;51.566;19.198;2022-10-19T01:33:16;10;8;6
68713;PMS7003;55690;51.566;19.198;2022-10-19T01:46:01;8;7;5
68713;PMS7003;55690;51.566;19.198;2022-10-19T01:54:24;8;8;5
68713;PMS7003;55690;51.566;19.198;2022-10-19T01:58:31;19;8;5
68713;PMS7003;55690;51.566;19.198;2022-10-19T02:02:37;8;5;2
68713;PMS7003;55690;51.566;19.198;2022-10-19T02:06:43;7;7;5
68713;PMS7003;55690;51.566;19.198;2022-10-19T02:10:49;10;10;9
68713;PMS7003;55690;51.566;19.198;2022-10-19T02:14:52;15;10;8
68713;PMS7003;55690;51.566;19.198;2022-10-19T02:18:58;16;10;6
68713;PMS7003;55690;51.566;19.198;2022-10-19T02:23:03;12;11;9
68713;PMS7003;55690;51.566;19.198;2022-10-19T02:27:09;8;8;4
68713;PMS7003;55690;51.566;19.198;2022-10-19T02:39:23;13;10;8
68713;PMS7003;55690;51.566;19.198;2022-10-19T02:43:25;15;4;3
68713;PMS7003;55690;51.566;19.198;2022-10-19T02:55:56;12;7;4
68713;PMS7003;55690;51.566;19.198;2022-10-19T02:59:58;8;8;5
68713;PMS7003;55690;51.566;19.198;2022-10-19T03:04:00;7;6;6
68713;PMS7003;55690;51.566;19.198;2022-10-19T03:08:01;11;9;6
68713;PMS7003;55690;51.566;19.198;2022-10-19T03:12:07;8;7;5
68713;PMS7003;55690;51.566;19.198;2022-10-19T03:16:09;11;9;6
68713;PMS7003;55690;51.566;19.198;2022-10-19T03:24:20;11;8;6
68713;PMS7003;55690;51.566;19.198;2022-10-19T03:28:22;7;5;3
68713;PMS7003;55690;51.566;19.198;2022-10-19T03:32:23;9;7;6
68713;PMS7003;55690;51.566;19.198;2022-10-19T03:36:26;9;4;3
68713;PMS7003;55690;51.566;19.198;2022-10-19T03:40:29;9;7;4
68713;PMS7003;55690;51.566;19.198;2022-10-19T03:44:31;11;5;5
68713;PMS7003;55690;51.566;19.198;2022-10-19T03:48:33;7;6;4
68713;PMS7003;55690;51.566;19.198;2022-10-19T03:52:34;6;6;4
68713;PMS7003;55690;51.566;19.198;2022-10-19T03:56:36;9;5;3
68713;PMS7003;55690;51.566;19.198;2022-10-19T04:00:38;14;9;6
68713;PMS7003;55690;51.566;19.198;2022-10-19T04:04:40;15;12;6
68713;PMS7003;55690;51.566;19.198;2022-10-19T04:08:41;10;9;6
68713;PMS7003;55690;51.566;19.198;2022-10-19T04:12:43;15;13;7
68713;PMS7003;55690;51.566;19.198;2022-10-19T04:16:45;11;8;5
68713;PMS7003;55690;51.566;19.198;2022-10-19T04:20:47;23;10;7
68713;PMS7003;55690;51.566;19.198;2022-10-19T04:24:52;11;10;6
68713;PMS7003;55690;51.566;19.198;2022-10-19T04:28:58;15;14;7
68713;PMS7003;55690;51.566;19.198;2022-10-19T04:33:04;17;12;7
68713;PMS7003;55690;51.566;19.198;2022-10-19T04:37:10;10;8;6
68713;PMS7003;55690;51.566;19.198;2022-10-19T04:41:17;14;11;6
68713;PMS7003;55690;51.566;19.198;2022-10-19T04:45:23;13;11;9
68713;PMS7003;55690;51.566;19.198;2022-10-19T04:49:29;23;19;12
68713;PMS7003;55690;51.566;19.198;2022-10-19T04:53:35;22;19;9
68713;PMS7003;55690;51.566;19.198;2022-10-19T04:57:41;23;18;14
68713;PMS7003;55690;51.566;19.198;2022-10-19T05:01:47;11;11;8
68713;PMS7003;55690;51.566;19.198;2022-10-19T05:05:54;21;12;8
68713;PMS7003;55690;51.566;19.198;2022-10-19T05:10:00;28;17;9
68713;PMS7003;55690;51.566;19.198;2022-10-19T05:14:06;12;12;9
68713;PMS7003;55690;51.566;19.198;2022-10-19T05:18:12;22;17;9
68713;PMS7003;55690;51.566;19.198;2022-10-19T05:22:18;18;13;7
68713;PMS7003;55690;51.566;19.198;2022-10-19T05:26:28;33;23;8
68713;PMS7003;55690;51.566;19.198;2022-10-19T05:34:39;12;12;8
68713;PMS7003;55690;51.566;19.198;2022-10-19T05:42:49;15;11;9
68713;PMS7003;55690;51.566;19.198;2022-10-19T05:46:55;17;12;8
68713;PMS7003;55690;51.566;19.198;2022-10-19T05:51:03;11;11;7
68713;PMS7003;55690;51.566;19.198;2022-10-19T05:55:08;15;14;9
68713;PMS7003;55690;51.566;19.198;2022-10-19T05:59:15;21;15;10
68713;PMS7003;55690;51.566;19.198;2022-10-19T06:03:20;16;9;7
68713;PMS7003;55690;51.566;19.198;2022-10-19T06:07:26;11;7;6
68713;PMS7003;55690;51.566;19.198;2022-10-19T06:11:34;20;13;9
68713;PMS7003;55690;51.566;19.198;2022-10-19T06:15:38;16;10;7
68713;PMS7003;55690;51.566;19.198;2022-10-19T06:19:45;7;7;5
68713;PMS7003;55690;51.566;19.198;2022-10-19T06:23:51;15;12;6
68713;PMS7003;55690;51.566;19.198;2022-10-19T06:27:58;11;9;8
68713;PMS7003;55690;51.566;19.198;2022-10-19T06:32:03;13;12;7
68713;PMS7003;55690;51.566;19.198;2022-10-19T06:40:16;26;15;9
68713;PMS7003;55690;51.566;19.198;2022-10-19T06:44:22;17;9;7
68713;PMS7003;55690;51.566;19.198;2022-10-19T06:48:28;10;8;6
68713;PMS7003;55690;51.566;19.198;2022-10-19T06:52:34;14;8;6
68713;PMS7003;55690;51.566;19.198;2022-10-19T06:56:40;15;9;8
68713;PMS7003;55690;51.566;19.198;2022-10-19T07:04:52;11;11;7
68713;PMS7003;55690;51.566;19.198;2022-10-19T07:08:59;16;11;9
68713;PMS7003;55690;51.566;19.198;2022-10-19T07:13:05;18;13;7
68713;PMS7003;55690;51.566;19.198;2022-10-19T07:17:11;12;10;6
68713;PMS7003;55690;51.566;19.198;2022-10-19T07:21:18;15;14;9
68713;PMS7003;55690;51.566;19.198;2022-10-19T07:25:23;15;14;8
68713;PMS7003;55690;51.566;19.198;2022-10-19T07:29:30;11;9;7
68713;PMS7003;55690;51.566;19.198;2022-10-19T07:33:36;13;12;9
68713;PMS7003;55690;51.566;19.198;2022-10-19T07:37:42;12;11;6
68713;PMS7003;55690;51.566;19.198;2022-10-19T07:41:48;14;12;9
68713;PMS7003;55690;51.566;19.198;2022-10-19T07:45:58;16;9;7
68713;PMS7003;55690;51.566;19.198;2022-10-19T07:50:07;12;11;6
68713;PMS7003;55690;51.566;19.198;2022-10-19T07:54:09;12;12;9
68713;PMS7003;55690;51.566;19.198;2022-10-19T07:58:13;18;9;7
68713;PMS7003;55690;51.566;19.198;2022-10-19T08:02:19;8;6;5
68713;PMS7003;55690;51.566;19.198;2022-10-19T08:06:25;9;9;7
68713;PMS7003;55690;51.566;19.198;2022-10-19T08:10:32;9;6;5
68713;PMS7003;55690;51.566;19.198;2022-10-19T08:14:37;7;7;6
68713;PMS7003;55690;51.566;19.198;2022-10-19T08:18:46;6;5;4
68713;PMS7003;55690;51.566;19.198;2022-10-19T08:22:50;7;7;6
68713;PMS7003;55690;51.566;19.198;2022-10-19T08:26:56;10;8;6
68713;PMS7003;55690;51.566;19.198;2022-10-19T08:35:14;7;5;5
68713;PMS7003;55690;51.566;19.198;2022-10-19T08:39:16;2;2;2
68713;PMS7003;55690;51.566;19.198;2022-10-19T08:43:32;4;4;4
68713;PMS7003;55690;51.566;19.198;2022-10-19T08:51:48;6;6;5
68713;PMS7003;55690;51.566;19.198;2022-10-19T08:56:03;9;7;6
68713;PMS7003;55690;51.566;19.198;2022-10-19T09:00:14;4;3;3
68713;PMS7003;55690;51.566;19.198;2022-10-19T09:08:34;5;4;4
68713;PMS7003;55690;51.566;19.198;2022-10-19T09:16:53;3;3;3
68713;PMS7003;55690;51.566;19.198;2022-10-19T09:21:04;4;4;3
68713;PMS7003;55690;51.566;19.198;2022-10-19T09:25:28;4;4;4
68713;PMS7003;55690;51.566;19.198;2022-10-19T09:29:36;3;3;2
68713;PMS7003;55690;51.566;19.198;2022-10-19T09:33:42;6;4;4
68713;PMS7003;55690;51.566;19.198;2022-10-19T09:37:52;2;2;2
68713;PMS7003;55690;51.566;19.198;2022-10-19T09:41:56;3;3;2
68713;PMS7003;55690;51.566;19.198;2022-10-19T09:46:10;11;2;2
68713;PMS7003;55690;51.566;19.198;2022-10-19T09:50:20;9;9;6
68713;PMS7003;55690;51.566;19.198;2022-10-19T09:58:37;4;4;3
68713;PMS7003;55690;51.566;19.198;2022-10-19T10:02:51;7;3;2
68713;PMS7003;55690;51.566;19.198;2022-10-19T10:06:56;6;5;5
68713;PMS7003;55690;51.566;19.198;2022-10-19T10:11:03;6;4;4
68713;PMS7003;55690;51.566;19.198;2022-10-19T10:15:15;9;9;8
68713;PMS7003;55690;51.566;19.198;2022-10-19T10:19:21;4;4;4
68713;PMS7003;55690;51.566;19.198;2022-10-19T10:23:30;2;2;2
68713;PMS7003;55690;51.566;19.198;2022-10-19T10:27:36;4;4;3
68713;PMS7003;55690;51.566;19.198;2022-10-19T10:31:40;2;2;1
68713;PMS7003;55690;51.566;19.198;2022-10-19T10:35:47;5;4;3
68713;PMS7003;55690;51.566;19.198;2022-10-19T10:39:55;2;2;1
68713;PMS7003;55690;51.566;19.198;2022-10-19T10:44:01;4;3;3
68713;PMS7003;55690;51.566;19.198;2022-10-19T10:52:23;9;5;3
68713;PMS7003;55690;51.566;19.198;2022-10-19T10:56:29;5;3;3
68713;PMS7003;55690;51.566;19.198;2022-10-19T11:00:35;10;3;3
68713;PMS7003;55690;51.566;19.198;2022-10-19T11:04:41;4;4;3
68713;PMS7003;55690;51.566;19.198;2022-10-19T11:17:17;5;5;3
68713;PMS7003;55690;51.566;19.198;2022-10-19T11:21:19;4;4;3
68713;PMS7003;55690;51.566;19.198;2022-10-19T11:29:54;2;2;2
68713;PMS7003;55690;51.566;19.198;2022-10-19T11:46:52;3;3;3
68713;PMS7003;55690;51.566;19.198;2022-10-19T12:07:59;4;4;3
68713;PMS7003;55690;51.566;19.198;2022-10-19T12:16:22;4;4;3
68713;PMS7003;55690;51.566;19.198;2022-10-19T12:20:34;7;1;1
68713;PMS7003;55690;51.566;19.198;2022-10-19T12:24:40;0;0;0
68713;PMS7003;55690;51.566;19.198;2022-10-19T12:28:45;0;0;0
68713;PMS7003;55690;51.566;19.198;2022-10-19T12:49:34;0;0;0
68713;PMS7003;55690;51.566;19.198;2022-10-19T12:53:42;0;0;0
68713;PMS7003;55690;51.566;19.198;2022-10-19T12:57:54;0;0;0
68713;PMS7003;55690;51.566;19.198;2022-10-19T13:02:03;0;0;0
68713;PMS7003;55690;51.566;19.198;2022-10-19T13:06:10;0;0;0
68713;PMS7003;55690;51.566;19.198;2022-10-19T13:10:18;0;0;0
68713;PMS7003;55690;51.566;19.198;2022-10-19T13:23:01;0;0;0
68713;PMS7003;55690;51.566;19.198;2022-10-19T13:35:31;2;2;1
68713;PMS7003;55690;51.566;19.198;2022-10-19T13:39:35;3;0;0
68713;PMS7003;55690;51.566;19.198;2022-10-19T13:43:48;0;0;0
68713;PMS7003;55690;51.566;19.198;2022-10-19T13:47:56;0;0;0
68713;PMS7003;55690;51.566;19.198;2022-10-19T13:56:18;0;0;0
68713;PMS7003;55690;51.566;19.198;2022-10-19T14:04:46;2;1;1
68713;PMS7003;55690;51.566;19.198;2022-10-19T14:08:57;2;2;2
68713;PMS7003;55690;51.566;19.198;2022-10-19T14:21:30;2;1;0
68713;PMS7003;55690;51.566;19.198;2022-10-19T14:25:34;3;3;1
68713;PMS7003;55690;51.566;19.198;2022-10-19T14:33:46;1;1;1
68713;PMS7003;55690;51.566;19.198;2022-10-19T14:37:51;7;2;2
68713;PMS7003;55690;51.566;19.198;2022-10-19T14:41:54;2;2;2
68713;PMS7003;55690;51.566;19.198;2022-10-19T14:50:05;7;3;2
68713;PMS7003;55690;51.566;19.198;2022-10-19T14:54:17;2;2;1
68713;PMS7003;55690;51.566;19.198;2022-10-19T15:02:33;8;4;3
68713;PMS7003;55690;51.566;19.198;2022-10-19T15:06:44;1;1;1
68713;PMS7003;55690;51.566;19.198;2022-10-19T15:10:46;2;2;1
68713;PMS7003;55690;51.566;19.198;2022-10-19T15:14:49;5;1;1
68713;PMS7003;55690;51.566;19.198;2022-10-19T15:18:51;0;0;0
68713;PMS7003;55690;51.566;19.198;2022-10-19T15:22:53;12;5;4
68713;PMS7003;55690;51.566;19.198;2022-10-19T15:26:55;2;2;2
68713;PMS7003;55690;51.566;19.198;2022-10-19T15:39:19;3;3;2
68713;PMS7003;55690;51.566;19.198;2022-10-19T15:43:31;6;3;2
68713;PMS7003;55690;51.566;19.198;2022-10-19T15:54:04;2;2;2
68713;PMS7003;55690;51.566;19.198;2022-10-19T15:58:14;3;3;3
68713;PMS7003;55690;51.566;19.198;2022-10-19T16:02:17;14;3;3
68713;PMS7003;55690;51.566;19.198;2022-10-19T16:06:23;3;3;2
68713;PMS7003;55690;51.566;19.198;2022-10-19T16:10:28;4;4;3
68713;PMS7003;55690;51.566;19.198;2022-10-19T16:14:34;10;3;2
68713;PMS7003;55690;51.566;19.198;2022-10-19T16:18:41;8;3;2
68713;PMS7003;55690;51.566;19.198;2022-10-19T16:22:47;5;3;3
68713;PMS7003;55690;51.566;19.198;2022-10-19T16:26:53;4;4;2
68713;PMS7003;55690;51.566;19.198;2022-10-19T16:30:59;6;2;2
68713;PMS7003;55690;51.566;19.198;2022-10-19T16:35:06;4;2;2
68713;PMS7003;55690;51.566;19.198;2022-10-19T16:39:11;4;3;3
68713;PMS7003;55690;51.566;19.198;2022-10-19T16:47:27;2;2;2
68713;PMS7003;55690;51.566;19.198;2022-10-19T16:59:42;7;4;3
68713;PMS7003;55690;51.566;19.198;2022-10-19T17:12:05;4;4;4
68713;PMS7003;55690;51.566;19.198;2022-10-19T17:16:07;8;5;3
68713;PMS7003;55690;51.566;19.198;2022-10-19T17:24:22;3;3;2
68713;PMS7003;55690;51.566;19.198;2022-10-19T17:28:25;13;4;2
68713;PMS7003;55690;51.566;19.198;2022-10-19T17:32:32;9;2;2
68713;PMS7003;55690;51.566;19.198;2022-10-19T17:36:39;5;5;4
68713;PMS7003;55690;51.566;19.198;2022-10-19T17:40:44;2;2;2
68713;PMS7003;55690;51.566;19.198;2022-10-19T17:44:52;8;4;2
68713;PMS7003;55690;51.566;19.198;2022-10-19T17:48:56;2;2;2
68713;PMS7003;55690;51.566;19.198;2022-10-19T17:53:02;4;3;3
68713;PMS7003;55690;51.566;19.198;2022-10-19T17:57:08;5;4;2
68713;PMS7003;55690;51.566;19.198;2022-10-19T18:05:25;6;4;4
68713;PMS7003;55690;51.566;19.198;2022-10-19T18:09:31;5;3;3
68713;PMS7003;55690;51.566;19.198;2022-10-19T18:17:43;6;5;3
68713;PMS7003;55690;51.566;19.198;2022-10-19T18:21:46;3;3;2
68713;PMS7003;55690;51.566;19.198;2022-10-19T18:29:58;4;4;3
68713;PMS7003;55690;51.566;19.198;2022-10-19T18:34:05;5;3;3
68713;PMS7003;55690;51.566;19.198;2022-10-19T18:42:20;7;7;6
68713;PMS7003;55690;51.566;19.198;2022-10-19T18:46:23;7;7;5
68713;PMS7003;55690;51.566;19.198;2022-10-19T18:50:29;8;5;3
68713;PMS7003;55690;51.566;19.198;2022-10-19T18:58:41;5;5;4
68713;PMS7003;55690;51.566;19.198;2022-10-19T19:02:51;9;7;5
68713;PMS7003;55690;51.566;19.198;2022-10-19T19:06:54;7;6;5
68713;PMS7003;55690;51.566;19.198;2022-10-19T19:15:15;11;4;3
68713;PMS7003;55690;51.566;19.198;2022-10-19T19:19:18;10;6;4
68713;PMS7003;55690;51.566;19.198;2022-10-19T19:27:24;11;9;6
68713;PMS7003;55690;51.566;19.198;2022-10-19T19:31:31;12;8;6
68713;PMS7003;55690;51.566;19.198;2022-10-19T19:39:45;3;1;0
68713;PMS7003;55690;51.566;19.198;2022-10-19T19:43:49;14;8;6
68713;PMS7003;55690;51.566;19.198;2022-10-19T19:47:55;11;8;4
68713;PMS7003;55690;51.566;19.198;2022-10-19T19:52:02;15;10;8
68713;PMS7003;55690;51.566;19.198;2022-10-19T19:56:08;11;7;4
68713;PMS7003;55690;51.566;19.198;2022-10-19T20:00:15;10;4;3
68713;PMS7003;55690;51.566;19.198;2022-10-19T20:04:20;8;5;3
68713;PMS7003;55690;51.566;19.198;2022-10-19T20:08:26;12;7;6
68713;PMS7003;55690;51.566;19.198;2022-10-19T20:16:39;12;8;7
68713;PMS7003;55690;51.566;19.198;2022-10-19T20:20:45;2;1;0
68713;PMS7003;55690;51.566;19.198;2022-10-19T20:24:51;4;4;2
68713;PMS7003;55690;51.566;19.198;2022-10-19T20:28:57;16;11;8
68713;PMS7003;55690;51.566;19.198;2022-10-19T20:33:03;14;8;5
68713;PMS7003;55690;51.566;19.198;2022-10-19T20:37:09;11;9;6
68713;PMS7003;55690;51.566;19.198;2022-10-19T20:41:16;14;5;3
68713;PMS7003;55690;51.566;19.198;2022-10-19T20:49:28;10;5;4
68713;PMS7003;55690;51.566;19.198;2022-10-19T20:53:34;5;3;3
68713;PMS7003;55690;51.566;19.198;2022-10-19T20:57:40;10;7;4
68713;PMS7003;55690;51.566;19.198;2022-10-19T21:01:50;15;5;5
68713;PMS7003;55690;51.566;19.198;2022-10-19T21:05:53;6;2;1
68713;PMS7003;55690;51.566;19.198;2022-10-19T21:09:59;4;4;3
68713;PMS7003;55690;51.566;19.198;2022-10-19T21:14:06;3;2;2
68713;PMS7003;55690;51.566;19.198;2022-10-19T21:22:17;3;2;2
68713;PMS7003;55690;51.566;19.198;2022-10-19T21:26:27;1;1;1
68713;PMS7003;55690;51.566;19.198;2022-10-19T21:30:30;11;5;4
68713;PMS7003;55690;51.566;19.198;2022-10-19T21:34:36;5;5;4
68713;PMS7003;55690;51.566;19.198;2022-10-19T21:38:42;4;4;3
68713;PMS7003;55690;51.566;19.198;2022-10-19T21:42:48;6;2;1
68713;PMS7003;55690;51.566;19.198;2022-10-19T21:46:54;17;4;3
68713;PMS7003;55690;51.566;19.198;2022-10-19T21:51:09;3;3;2
68713;PMS7003;55690;51.566;19.198;2022-10-19T21:55:13;1;1;1
68713;PMS7003;55690;51.566;19.198;2022-10-19T22:03:19;4;4;4
68713;PMS7003;55690;51.566;19.198;2022-10-19T22:07:26;3;3;2
68713;PMS7003;55690;51.566;19.198;2022-10-19T22:11:31;1;1;1
68713;PMS7003;55690;51.566;19.198;2022-10-19T22:15:38;5;1;1
68713;PMS7003;55690;51.566;19.198;2022-10-19T22:19:44;9;5;5
68713;PMS7003;55690;51.566;19.198;2022-10-19T22:23:54;8;3;1
68713;PMS7003;55690;51.566;19.198;2022-10-19T22:27:57;6;6;6
68713;PMS7003;55690;51.566;19.198;2022-10-19T22:32:02;6;6;5
68713;PMS7003;55690;51.566;19.198;2022-10-19T22:36:10;12;4;4
68713;PMS7003;55690;51.566;19.198;2022-10-19T22:40:15;7;7;5
68713;PMS7003;55690;51.566;19.198;2022-10-19T22:48:27;13;6;6
68713;PMS7003;55690;51.566;19.198;2022-10-19T22:52:37;12;8;6
68713;PMS7003;55690;51.566;19.198;2022-10-19T22:56:40;8;5;3
68713;PMS7003;55690;51.566;19.198;2022-10-19T23:00:56;7;6;5
68713;PMS7003;55690;51.566;19.198;2022-10-19T23:04:58;7;7;6
68713;PMS7003;55690;51.566;19.198;2022-10-19T23:08:59;13;4;2
68713;PMS7003;55690;51.566;19.198;2022-10-19T23:13:04;6;6;5
68713;PMS7003;55690;51.566;19.198;2022-10-19T23:21:17;13;8;7
68713;PMS7003;55690;51.566;19.198;2022-10-19T23:25:23;20;8;6
68713;PMS7003;55690;51.566;19.198;2022-10-19T23:29:29;10;3;3
68713;PMS7003;55690;51.566;19.198;2022-10-19T23:33:35;3;3;2
68713;PMS7003;55690;51.566;19.198;2022-10-19T23:37:41;4;4;3
68713;PMS7003;55690;51.566;19.198;2022-10-19T23:41:47;9;6;4
68713;PMS7003;55690;51.566;19.198;2022-10-19T23:45:54;2;2;2
68713;PMS7003;55690;51.566;19.198;2022-10-19T23:50:00;4;4;3
68713;PMS7003;55690;51.566;19.198;2022-10-19T23:54:06;2;2;1
68713;PMS7003;55690;51.566;19.198;2022-10-19T23:58:12;4;3;2
